Hartley, South Dakota
Current Conditions -  °F | °C
As of 2:55 PM on Friday 19 Dec 2014 (Local Time) from KPHP Reporting Station
Overcast Overcast  
Wind Chill: 45°   Ceiling: 10000
Heat Index: 45°   Visibility: 10mi
Dew Point: 26°   Wind: 3mph
Humidity: 48%   Direction: 300°WNW
Pressure: 29.95"   Gusts: NA
Location:  44.4194°N, 101.806°W
Report Text: KPHP 192155Z AUTO 30003KT 10SM OVC100 07/M03 A2995 RMK AO2 SLP163 T00721033
Loading
Personal Weather Stations






























Interactive Weather Map New forecast layout! Learn more

10-Day Weather Forecast

Advertisements
Track Severe Weather on mobile